sensor_id;sensor_type;location;lat;lon;timestamp;P1;durP1;ratioP1;P2;durP2;ratioP2
20491;SDS011;10404;51.468;6.762;2023-07-02T00:01:45;3.35;;;2.92;;
20491;SDS011;10404;51.468;6.762;2023-07-02T00:04:11;3.35;;;2.33;;
20491;SDS011;10404;51.468;6.762;2023-07-02T00:06:40;2.97;;;2.75;;
20491;SDS011;10404;51.468;6.762;2023-07-02T00:09:10;3.13;;;2.30;;
20491;SDS011;10404;51.468;6.762;2023-07-02T00:11:39;3.42;;;2.70;;
20491;SDS011;10404;51.468;6.762;2023-07-02T00:14:07;2.65;;;2.45;;
20491;SDS011;10404;51.468;6.762;2023-07-02T00:16:35;4.20;;;3.17;;
20491;SDS011;10404;51.468;6.762;2023-07-02T00:19:05;2.67;;;2.47;;
20491;SDS011;10404;51.468;6.762;2023-07-02T00:21:31;3.88;;;3.55;;
20491;SDS011;10404;51.468;6.762;2023-07-02T00:23:57;2.90;;;2.63;;
20491;SDS011;10404;51.468;6.762;2023-07-02T00:26:24;2.80;;;2.50;;
20491;SDS011;10404;51.468;6.762;2023-07-02T00:28:50;3.75;;;3.15;;
20491;SDS011;10404;51.468;6.762;2023-07-02T00:31:16;2.58;;;2.35;;
20491;SDS011;10404;51.468;6.762;2023-07-02T00:33:42;3.10;;;2.80;;
20491;SDS011;10404;51.468;6.762;2023-07-02T00:36:07;2.55;;;2.15;;
20491;SDS011;10404;51.468;6.762;2023-07-02T00:38:38;4.15;;;3.17;;
20491;SDS011;10404;51.468;6.762;2023-07-02T00:41:03;3.70;;;2.63;;
20491;SDS011;10404;51.468;6.762;2023-07-02T00:43:29;4.25;;;3.85;;
20491;SDS011;10404;51.468;6.762;2023-07-02T00:45:55;2.92;;;2.60;;
20491;SDS011;10404;51.468;6.762;2023-07-02T00:48:21;3.15;;;2.80;;
20491;SDS011;10404;51.468;6.762;2023-07-02T00:50:46;3.20;;;3.00;;
20491;SDS011;10404;51.468;6.762;2023-07-02T00:53:12;3.05;;;2.53;;
20491;SDS011;10404;51.468;6.762;2023-07-02T00:55:38;4.43;;;3.00;;
20491;SDS011;10404;51.468;6.762;2023-07-02T00:58:03;3.75;;;2.60;;
20491;SDS011;10404;51.468;6.762;2023-07-02T01:00:29;4.03;;;2.70;;
20491;SDS011;10404;51.468;6.762;2023-07-02T01:02:55;4.07;;;3.45;;
20491;SDS011;10404;51.468;6.762;2023-07-02T01:05:27;4.15;;;3.03;;
20491;SDS011;10404;51.468;6.762;2023-07-02T01:08:00;4.50;;;3.15;;
20491;SDS011;10404;51.468;6.762;2023-07-02T01:10:27;4.85;;;3.90;;
20491;SDS011;10404;51.468;6.762;2023-07-02T01:12:53;3.97;;;3.38;;
20491;SDS011;10404;51.468;6.762;2023-07-02T01:15:20;3.47;;;2.90;;
20491;SDS011;10404;51.468;6.762;2023-07-02T01:17:46;4.80;;;3.65;;
20491;SDS011;10404;51.468;6.762;2023-07-02T01:20:13;4.63;;;3.03;;
20491;SDS011;10404;51.468;6.762;2023-07-02T01:22:40;6.32;;;3.60;;
20491;SDS011;10404;51.468;6.762;2023-07-02T01:25:06;5.55;;;3.92;;
20491;SDS011;10404;51.468;6.762;2023-07-02T01:27:33;6.38;;;4.03;;
20491;SDS011;10404;51.468;6.762;2023-07-02T01:30:00;3.67;;;3.03;;
20491;SDS011;10404;51.468;6.762;2023-07-02T01:32:27;5.35;;;3.88;;
20491;SDS011;10404;51.468;6.762;2023-07-02T01:34:53;3.88;;;3.10;;
20491;SDS011;10404;51.468;6.762;2023-07-02T01:37:18;5.93;;;3.38;;
20491;SDS011;10404;51.468;6.762;2023-07-02T01:39:44;6.45;;;3.70;;
20491;SDS011;10404;51.468;6.762;2023-07-02T01:42:10;6.13;;;3.85;;
20491;SDS011;10404;51.468;6.762;2023-07-02T01:44:37;4.10;;;3.65;;
20491;SDS011;10404;51.468;6.762;2023-07-02T01:47:04;5.95;;;3.92;;
20491;SDS011;10404;51.468;6.762;2023-07-02T01:49:29;5.40;;;4.32;;
20491;SDS011;10404;51.468;6.762;2023-07-02T01:51:56;5.60;;;4.30;;
20491;SDS011;10404;51.468;6.762;2023-07-02T01:54:22;6.40;;;4.65;;
20491;SDS011;10404;51.468;6.762;2023-07-02T01:56:53;6.38;;;4.03;;
20491;SDS011;10404;51.468;6.762;2023-07-02T01:59:19;5.50;;;3.72;;
20491;SDS011;10404;51.468;6.762;2023-07-02T02:01:45;5.88;;;3.95;;
20491;SDS011;10404;51.468;6.762;2023-07-02T02:04:11;7.40;;;4.22;;
20491;SDS011;10404;51.468;6.762;2023-07-02T02:06:37;6.95;;;4.82;;
20491;SDS011;10404;51.468;6.762;2023-07-02T02:09:03;6.28;;;4.28;;
20491;SDS011;10404;51.468;6.762;2023-07-02T02:11:30;5.53;;;4.78;;
20491;SDS011;10404;51.468;6.762;2023-07-02T02:13:56;6.38;;;4.15;;
20491;SDS011;10404;51.468;6.762;2023-07-02T02:16:22;7.40;;;4.30;;
20491;SDS011;10404;51.468;6.762;2023-07-02T02:18:48;8.05;;;4.60;;
20491;SDS011;10404;51.468;6.762;2023-07-02T02:21:17;7.22;;;4.32;;
20491;SDS011;10404;51.468;6.762;2023-07-02T02:23:43;8.48;;;4.55;;
20491;SDS011;10404;51.468;6.762;2023-07-02T02:26:09;6.35;;;4.38;;
20491;SDS011;10404;51.468;6.762;2023-07-02T02:28:34;6.53;;;5.05;;
20491;SDS011;10404;51.468;6.762;2023-07-02T02:31:00;8.75;;;4.63;;
20491;SDS011;10404;51.468;6.762;2023-07-02T02:33:25;8.70;;;4.95;;
20491;SDS011;10404;51.468;6.762;2023-07-02T02:35:51;7.65;;;4.55;;
20491;SDS011;10404;51.468;6.762;2023-07-02T02:38:17;7.57;;;4.18;;
20491;SDS011;10404;51.468;6.762;2023-07-02T02:40:42;6.32;;;4.43;;
20491;SDS011;10404;51.468;6.762;2023-07-02T02:43:08;7.95;;;4.68;;
20491;SDS011;10404;51.468;6.762;2023-07-02T02:45:34;8.02;;;5.53;;
20491;SDS011;10404;51.468;6.762;2023-07-02T02:47:59;6.78;;;4.65;;
20491;SDS011;10404;51.468;6.762;2023-07-02T02:50:25;7.32;;;5.82;;
20491;SDS011;10404;51.468;6.762;2023-07-02T02:52:50;5.85;;;4.28;;
20491;SDS011;10404;51.468;6.762;2023-07-02T02:55:16;9.35;;;5.03;;
20491;SDS011;10404;51.468;6.762;2023-07-02T02:57:41;7.85;;;5.80;;
20491;SDS011;10404;51.468;6.762;2023-07-02T03:00:08;9.48;;;5.75;;
20491;SDS011;10404;51.468;6.762;2023-07-02T03:02:34;8.13;;;5.50;;
20491;SDS011;10404;51.468;6.762;2023-07-02T03:05:00;9.43;;;5.20;;
20491;SDS011;10404;51.468;6.762;2023-07-02T03:07:31;10.32;;;5.68;;
20491;SDS011;10404;51.468;6.762;2023-07-02T03:09:57;10.43;;;5.40;;
20491;SDS011;10404;51.468;6.762;2023-07-02T03:12:23;10.02;;;5.75;;
20491;SDS011;10404;51.468;6.762;2023-07-02T03:14:49;9.90;;;6.38;;
20491;SDS011;10404;51.468;6.762;2023-07-02T03:17:18;9.88;;;5.78;;
20491;SDS011;10404;51.468;6.762;2023-07-02T03:19:44;10.80;;;6.65;;
20491;SDS011;10404;51.468;6.762;2023-07-02T03:22:10;11.27;;;6.63;;
20491;SDS011;10404;51.468;6.762;2023-07-02T03:24:35;9.43;;;7.05;;
20491;SDS011;10404;51.468;6.762;2023-07-02T03:27:01;10.27;;;5.55;;
20491;SDS011;10404;51.468;6.762;2023-07-02T03:29:26;9.43;;;6.47;;
20491;SDS011;10404;51.468;6.762;2023-07-02T03:31:52;10.25;;;6.75;;
20491;SDS011;10404;51.468;6.762;2023-07-02T03:34:18;11.38;;;6.40;;
20491;SDS011;10404;51.468;6.762;2023-07-02T03:36:43;11.15;;;7.13;;
20491;SDS011;10404;51.468;6.762;2023-07-02T03:39:09;11.07;;;6.75;;
20491;SDS011;10404;51.468;6.762;2023-07-02T03:41:35;10.52;;;7.32;;
20491;SDS011;10404;51.468;6.762;2023-07-02T03:44:00;10.27;;;6.68;;
20491;SDS011;10404;51.468;6.762;2023-07-02T03:46:26;9.43;;;6.63;;
20491;SDS011;10404;51.468;6.762;2023-07-02T03:48:51;10.75;;;7.18;;
20491;SDS011;10404;51.468;6.762;2023-07-02T03:51:17;11.13;;;6.03;;
20491;SDS011;10404;51.468;6.762;2023-07-02T03:53:42;11.45;;;7.47;;
20491;SDS011;10404;51.468;6.762;2023-07-02T03:56:08;11.43;;;7.00;;
20491;SDS011;10404;51.468;6.762;2023-07-02T03:58:34;12.13;;;7.70;;
20491;SDS011;10404;51.468;6.762;2023-07-02T04:01:00;12.82;;;7.93;;
20491;SDS011;10404;51.468;6.762;2023-07-02T04:03:25;10.43;;;7.53;;
20491;SDS011;10404;51.468;6.762;2023-07-02T04:05:51;13.85;;;7.85;;
20491;SDS011;10404;51.468;6.762;2023-07-02T04:08:17;11.32;;;7.13;;
20491;SDS011;10404;51.468;6.762;2023-07-02T04:10:43;10.35;;;7.57;;
20491;SDS011;10404;51.468;6.762;2023-07-02T04:13:08;13.23;;;7.50;;
20491;SDS011;10404;51.468;6.762;2023-07-02T04:15:34;11.65;;;7.95;;
20491;SDS011;10404;51.468;6.762;2023-07-02T04:18:00;12.45;;;8.05;;
20491;SDS011;10404;51.468;6.762;2023-07-02T04:20:26;14.10;;;8.05;;
20491;SDS011;10404;51.468;6.762;2023-07-02T04:22:53;14.80;;;8.38;;
20491;SDS011;10404;51.468;6.762;2023-07-02T04:25:19;14.60;;;8.00;;
20491;SDS011;10404;51.468;6.762;2023-07-02T04:27:45;12.05;;;8.40;;
20491;SDS011;10404;51.468;6.762;2023-07-02T04:30:10;13.50;;;8.10;;
20491;SDS011;10404;51.468;6.762;2023-07-02T04:32:37;16.00;;;8.35;;
20491;SDS011;10404;51.468;6.762;2023-07-02T04:35:06;12.10;;;8.15;;
20491;SDS011;10404;51.468;6.762;2023-07-02T04:37:33;13.43;;;8.38;;
20491;SDS011;10404;51.468;6.762;2023-07-02T04:39:59;16.15;;;8.50;;
20491;SDS011;10404;51.468;6.762;2023-07-02T04:42:25;13.10;;;8.55;;
20491;SDS011;10404;51.468;6.762;2023-07-02T04:44:56;15.07;;;9.48;;
20491;SDS011;10404;51.468;6.762;2023-07-02T04:47:27;13.60;;;8.80;;
20491;SDS011;10404;51.468;6.762;2023-07-02T04:49:52;12.73;;;9.30;;
20491;SDS011;10404;51.468;6.762;2023-07-02T04:52:18;17.00;;;9.13;;
20491;SDS011;10404;51.468;6.762;2023-07-02T04:54:43;14.77;;;8.43;;
20491;SDS011;10404;51.468;6.762;2023-07-02T04:57:09;13.57;;;8.77;;
20491;SDS011;10404;51.468;6.762;2023-07-02T04:59:34;15.73;;;9.50;;
20491;SDS011;10404;51.468;6.762;2023-07-02T05:02:00;18.15;;;9.68;;
20491;SDS011;10404;51.468;6.762;2023-07-02T05:04:25;15.77;;;9.27;;
20491;SDS011;10404;51.468;6.762;2023-07-02T05:06:51;16.35;;;9.10;;
20491;SDS011;10404;51.468;6.762;2023-07-02T05:09:16;13.70;;;9.05;;
20491;SDS011;10404;51.468;6.762;2023-07-02T05:11:42;18.35;;;11.07;;
20491;SDS011;10404;51.468;6.762;2023-07-02T05:14:07;17.20;;;9.40;;
20491;SDS011;10404;51.468;6.762;2023-07-02T05:16:33;14.73;;;9.57;;
20491;SDS011;10404;51.468;6.762;2023-07-02T05:18:58;14.35;;;9.77;;
20491;SDS011;10404;51.468;6.762;2023-07-02T05:21:24;14.55;;;10.13;;
20491;SDS011;10404;51.468;6.762;2023-07-02T05:23:49;17.23;;;9.27;;
20491;SDS011;10404;51.468;6.762;2023-07-02T05:26:15;17.58;;;10.65;;
20491;SDS011;10404;51.468;6.762;2023-07-02T05:28:41;14.50;;;9.20;;
20491;SDS011;10404;51.468;6.762;2023-07-02T05:31:06;15.65;;;9.88;;
20491;SDS011;10404;51.468;6.762;2023-07-02T05:33:32;13.63;;;9.32;;
20491;SDS011;10404;51.468;6.762;2023-07-02T05:35:58;15.00;;;9.40;;
20491;SDS011;10404;51.468;6.762;2023-07-02T05:38:24;15.43;;;10.13;;
20491;SDS011;10404;51.468;6.762;2023-07-02T05:40:49;16.40;;;10.50;;
20491;SDS011;10404;51.468;6.762;2023-07-02T05:43:15;18.15;;;10.00;;
20491;SDS011;10404;51.468;6.762;2023-07-02T05:45:41;17.77;;;9.90;;
20491;SDS011;10404;51.468;6.762;2023-07-02T05:48:06;15.57;;;9.05;;
20491;SDS011;10404;51.468;6.762;2023-07-02T05:50:32;15.02;;;10.02;;
20491;SDS011;10404;51.468;6.762;2023-07-02T05:52:57;17.25;;;10.45;;
20491;SDS011;10404;51.468;6.762;2023-07-02T05:55:23;17.27;;;10.63;;
20491;SDS011;10404;51.468;6.762;2023-07-02T05:57:48;16.55;;;11.00;;
20491;SDS011;10404;51.468;6.762;2023-07-02T06:00:14;17.08;;;9.38;;
20491;SDS011;10404;51.468;6.762;2023-07-02T06:02:40;18.27;;;10.45;;
20491;SDS011;10404;51.468;6.762;2023-07-02T06:05:05;17.35;;;10.05;;
20491;SDS011;10404;51.468;6.762;2023-07-02T06:07:31;16.13;;;10.82;;
20491;SDS011;10404;51.468;6.762;2023-07-02T06:09:57;17.65;;;9.90;;
20491;SDS011;10404;51.468;6.762;2023-07-02T06:12:22;15.82;;;11.02;;
20491;SDS011;10404;51.468;6.762;2023-07-02T06:14:48;16.67;;;9.45;;
20491;SDS011;10404;51.468;6.762;2023-07-02T06:17:14;18.42;;;10.27;;
20491;SDS011;10404;51.468;6.762;2023-07-02T06:19:40;16.58;;;10.30;;
20491;SDS011;10404;51.468;6.762;2023-07-02T06:22:06;15.77;;;10.05;;
20491;SDS011;10404;51.468;6.762;2023-07-02T06:24:31;17.50;;;10.65;;
20491;SDS011;10404;51.468;6.762;2023-07-02T06:26:57;14.30;;;9.00;;
20491;SDS011;10404;51.468;6.762;2023-07-02T06:29:23;15.65;;;9.50;;
20491;SDS011;10404;51.468;6.762;2023-07-02T06:31:49;16.13;;;10.27;;
20491;SDS011;10404;51.468;6.762;2023-07-02T06:34:15;19.45;;;9.45;;
20491;SDS011;10404;51.468;6.762;2023-07-02T06:36:40;18.20;;;10.20;;
20491;SDS011;10404;51.468;6.762;2023-07-02T06:39:06;16.35;;;9.80;;
20491;SDS011;10404;51.468;6.762;2023-07-02T06:41:34;16.52;;;9.98;;
20491;SDS011;10404;51.468;6.762;2023-07-02T06:44:00;15.55;;;9.90;;
20491;SDS011;10404;51.468;6.762;2023-07-02T06:46:25;17.17;;;10.48;;
20491;SDS011;10404;51.468;6.762;2023-07-02T06:48:51;15.27;;;9.75;;
20491;SDS011;10404;51.468;6.762;2023-07-02T06:51:17;16.60;;;9.52;;
20491;SDS011;10404;51.468;6.762;2023-07-02T06:53:44;15.00;;;9.23;;
20491;SDS011;10404;51.468;6.762;2023-07-02T06:56:10;15.30;;;9.65;;
20491;SDS011;10404;51.468;6.762;2023-07-02T06:58:36;15.55;;;8.85;;
20491;SDS011;10404;51.468;6.762;2023-07-02T07:01:01;19.98;;;9.27;;
20491;SDS011;10404;51.468;6.762;2023-07-02T07:03:27;18.23;;;9.75;;
20491;SDS011;10404;51.468;6.762;2023-07-02T07:05:53;15.95;;;9.85;;
20491;SDS011;10404;51.468;6.762;2023-07-02T07:08:19;14.95;;;8.68;;
20491;SDS011;10404;51.468;6.762;2023-07-02T07:10:44;16.13;;;8.27;;
20491;SDS011;10404;51.468;6.762;2023-07-02T07:13:13;14.55;;;8.90;;
20491;SDS011;10404;51.468;6.762;2023-07-02T07:15:39;15.00;;;8.38;;
20491;SDS011;10404;51.468;6.762;2023-07-02T07:18:04;14.75;;;8.55;;
20491;SDS011;10404;51.468;6.762;2023-07-02T07:20:30;15.68;;;8.93;;
20491;SDS011;10404;51.468;6.762;2023-07-02T07:22:56;14.45;;;8.20;;
20491;SDS011;10404;51.468;6.762;2023-07-02T07:25:22;11.82;;;9.30;;
20491;SDS011;10404;51.468;6.762;2023-07-02T07:27:48;13.65;;;8.20;;
20491;SDS011;10404;51.468;6.762;2023-07-02T07:30:14;15.05;;;9.45;;
20491;SDS011;10404;51.468;6.762;2023-07-02T07:32:40;18.23;;;9.82;;
20491;SDS011;10404;51.468;6.762;2023-07-02T07:35:06;14.50;;;8.20;;
20491;SDS011;10404;51.468;6.762;2023-07-02T07:37:32;13.75;;;8.30;;
20491;SDS011;10404;51.468;6.762;2023-07-02T07:39:58;13.02;;;8.18;;
20491;SDS011;10404;51.468;6.762;2023-07-02T07:42:23;14.82;;;8.73;;
20491;SDS011;10404;51.468;6.762;2023-07-02T07:44:49;14.60;;;8.25;;
20491;SDS011;10404;51.468;6.762;2023-07-02T07:47:15;12.57;;;8.00;;
20491;SDS011;10404;51.468;6.762;2023-07-02T07:49:40;13.40;;;8.02;;
20491;SDS011;10404;51.468;6.762;2023-07-02T07:52:06;14.38;;;7.97;;
20491;SDS011;10404;51.468;6.762;2023-07-02T07:54:32;14.73;;;8.98;;
20491;SDS011;10404;51.468;6.762;2023-07-02T07:57:00;10.57;;;6.97;;
20491;SDS011;10404;51.468;6.762;2023-07-02T07:59:26;12.50;;;7.47;;
20491;SDS011;10404;51.468;6.762;2023-07-02T08:01:51;13.32;;;6.72;;
20491;SDS011;10404;51.468;6.762;2023-07-02T08:04:17;15.27;;;7.95;;
20491;SDS011;10404;51.468;6.762;2023-07-02T08:06:42;12.90;;;6.55;;
20491;SDS011;10404;51.468;6.762;2023-07-02T08:09:08;13.18;;;7.15;;
20491;SDS011;10404;51.468;6.762;2023-07-02T08:11:34;10.93;;;7.55;;
20491;SDS011;10404;51.468;6.762;2023-07-02T08:14:00;11.25;;;6.35;;
20491;SDS011;10404;51.468;6.762;2023-07-02T08:16:25;12.25;;;6.85;;
20491;SDS011;10404;51.468;6.762;2023-07-02T08:18:51;11.32;;;6.80;;
20491;SDS011;10404;51.468;6.762;2023-07-02T08:21:16;14.10;;;7.75;;
20491;SDS011;10404;51.468;6.762;2023-07-02T08:23:42;12.50;;;7.03;;
20491;SDS011;10404;51.468;6.762;2023-07-02T08:26:09;12.00;;;6.40;;
20491;SDS011;10404;51.468;6.762;2023-07-02T08:28:35;11.10;;;6.50;;
20491;SDS011;10404;51.468;6.762;2023-07-02T08:31:03;9.43;;;6.00;;
20491;SDS011;10404;51.468;6.762;2023-07-02T08:33:28;10.52;;;6.60;;
20491;SDS011;10404;51.468;6.762;2023-07-02T08:35:54;9.18;;;5.28;;
20491;SDS011;10404;51.468;6.762;2023-07-02T08:38:20;9.73;;;5.97;;
20491;SDS011;10404;51.468;6.762;2023-07-02T08:40:47;8.50;;;5.50;;
20491;SDS011;10404;51.468;6.762;2023-07-02T08:43:14;9.52;;;5.13;;
20491;SDS011;10404;51.468;6.762;2023-07-02T08:45:40;11.52;;;5.97;;
20491;SDS011;10404;51.468;6.762;2023-07-02T08:48:10;10.02;;;5.55;;
20491;SDS011;10404;51.468;6.762;2023-07-02T08:50:36;10.20;;;5.85;;
20491;SDS011;10404;51.468;6.762;2023-07-02T08:53:02;10.57;;;5.82;;
20491;SDS011;10404;51.468;6.762;2023-07-02T08:55:27;9.00;;;5.53;;
20491;SDS011;10404;51.468;6.762;2023-07-02T08:57:55;9.93;;;5.63;;
20491;SDS011;10404;51.468;6.762;2023-07-02T09:00:24;11.00;;;5.85;;
20491;SDS011;10404;51.468;6.762;2023-07-02T09:02:50;10.82;;;5.55;;
20491;SDS011;10404;51.468;6.762;2023-07-02T09:05:16;10.55;;;5.10;;
20491;SDS011;10404;51.468;6.762;2023-07-02T09:07:46;10.02;;;5.80;;
20491;SDS011;10404;51.468;6.762;2023-07-02T09:10:12;9.40;;;5.28;;
20491;SDS011;10404;51.468;6.762;2023-07-02T09:12:51;8.90;;;5.40;;
20491;SDS011;10404;51.468;6.762;2023-07-02T09:15:29;11.00;;;6.60;;
20491;SDS011;10404;51.468;6.762;2023-07-02T09:18:01;10.10;;;6.07;;
20491;SDS011;10404;51.468;6.762;2023-07-02T09:20:32;13.05;;;6.68;;
20491;SDS011;10404;51.468;6.762;2023-07-02T09:22:58;10.38;;;5.80;;
20491;SDS011;10404;51.468;6.762;2023-07-02T09:25:33;11.35;;;6.38;;
20491;SDS011;10404;51.468;6.762;2023-07-02T09:28:01;11.73;;;6.65;;
20491;SDS011;10404;51.468;6.762;2023-07-02T09:30:27;9.15;;;6.53;;
20491;SDS011;10404;51.468;6.762;2023-07-02T09:32:53;9.00;;;6.45;;
20491;SDS011;10404;51.468;6.762;2023-07-02T09:35:19;12.05;;;6.63;;
20491;SDS011;10404;51.468;6.762;2023-07-02T09:37:45;11.93;;;6.70;;
20491;SDS011;10404;51.468;6.762;2023-07-02T09:40:11;12.95;;;6.88;;
20491;SDS011;10404;51.468;6.762;2023-07-02T09:42:38;10.68;;;6.68;;
20491;SDS011;10404;51.468;6.762;2023-07-02T09:45:07;11.15;;;6.70;;
20491;SDS011;10404;51.468;6.762;2023-07-02T09:47:35;11.55;;;6.55;;
20491;SDS011;10404;51.468;6.762;2023-07-02T09:50:07;8.45;;;6.10;;
20491;SDS011;10404;51.468;6.762;2023-07-02T09:52:34;9.90;;;5.95;;
20491;SDS011;10404;51.468;6.762;2023-07-02T09:55:00;8.90;;;5.50;;
20491;SDS011;10404;51.468;6.762;2023-07-02T09:57:26;10.07;;;6.60;;
20491;SDS011;10404;51.468;6.762;2023-07-02T09:59:54;9.10;;;5.47;;
20491;SDS011;10404;51.468;6.762;2023-07-02T10:02:20;9.38;;;5.38;;
20491;SDS011;10404;51.468;6.762;2023-07-02T10:04:46;8.82;;;5.85;;
20491;SDS011;10404;51.468;6.762;2023-07-02T10:07:25;9.93;;;5.60;;
20491;SDS011;10404;51.468;6.762;2023-07-02T10:09:52;9.38;;;6.20;;
20491;SDS011;10404;51.468;6.762;2023-07-02T10:12:18;8.65;;;5.55;;
20491;SDS011;10404;51.468;6.762;2023-07-02T10:14:45;9.50;;;5.43;;
20491;SDS011;10404;51.468;6.762;2023-07-02T10:17:22;9.43;;;5.93;;
20491;SDS011;10404;51.468;6.762;2023-07-02T10:19:51;9.15;;;6.07;;
20491;SDS011;10404;51.468;6.762;2023-07-02T10:22:17;9.43;;;4.63;;
20491;SDS011;10404;51.468;6.762;2023-07-02T10:24:50;10.93;;;6.30;;
20491;SDS011;10404;51.468;6.762;2023-07-02T10:27:17;10.43;;;5.28;;
20491;SDS011;10404;51.468;6.762;2023-07-02T10:29:48;10.10;;;5.68;;
20491;SDS011;10404;51.468;6.762;2023-07-02T10:32:14;11.02;;;5.95;;
20491;SDS011;10404;51.468;6.762;2023-07-02T10:34:51;10.60;;;6.10;;
20491;SDS011;10404;51.468;6.762;2023-07-02T10:37:17;9.90;;;5.45;;
20491;SDS011;10404;51.468;6.762;2023-07-02T10:39:43;8.88;;;5.20;;
20491;SDS011;10404;51.468;6.762;2023-07-02T10:42:09;8.90;;;5.85;;
20491;SDS011;10404;51.468;6.762;2023-07-02T10:44:46;12.85;;;5.97;;
20491;SDS011;10404;51.468;6.762;2023-07-02T10:47:15;9.60;;;5.22;;
20491;SDS011;10404;51.468;6.762;2023-07-02T10:49:41;9.57;;;5.70;;
20491;SDS011;10404;51.468;6.762;2023-07-02T10:52:07;8.70;;;5.13;;
20491;SDS011;10404;51.468;6.762;2023-07-02T10:54:45;10.95;;;5.88;;
20491;SDS011;10404;51.468;6.762;2023-07-02T10:57:15;9.98;;;5.15;;
20491;SDS011;10404;51.468;6.762;2023-07-02T10:59:46;7.40;;;5.50;;
20491;SDS011;10404;51.468;6.762;2023-07-02T11:02:13;8.77;;;5.07;;
20491;SDS011;10404;51.468;6.762;2023-07-02T11:04:39;8.38;;;5.68;;
20491;SDS011;10404;51.468;6.762;2023-07-02T11:07:05;9.10;;;5.00;;
20491;SDS011;10404;51.468;6.762;2023-07-02T11:09:30;8.52;;;5.75;;
20491;SDS011;10404;51.468;6.762;2023-07-02T11:11:58;9.82;;;5.57;;
20491;SDS011;10404;51.468;6.762;2023-07-02T11:14:31;7.43;;;5.03;;
20491;SDS011;10404;51.468;6.762;2023-07-02T11:16:59;7.93;;;5.00;;
20491;SDS011;10404;51.468;6.762;2023-07-02T11:19:28;7.72;;;5.38;;
20491;SDS011;10404;51.468;6.762;2023-07-02T11:21:55;9.93;;;6.35;;
20491;SDS011;10404;51.468;6.762;2023-07-02T11:24:32;9.75;;;5.88;;
20491;SDS011;10404;51.468;6.762;2023-07-02T11:27:00;8.00;;;5.28;;
20491;SDS011;10404;51.468;6.762;2023-07-02T11:29:28;8.60;;;5.95;;
20491;SDS011;10404;51.468;6.762;2023-07-02T11:31:54;8.88;;;5.28;;
20491;SDS011;10404;51.468;6.762;2023-07-02T11:34:29;9.32;;;6.07;;
20491;SDS011;10404;51.468;6.762;2023-07-02T11:36:54;8.65;;;5.40;;
20491;SDS011;10404;51.468;6.762;2023-07-02T11:39:20;9.15;;;5.47;;
20491;SDS011;10404;51.468;6.762;2023-07-02T11:41:47;6.72;;;4.85;;
20491;SDS011;10404;51.468;6.762;2023-07-02T11:44:13;7.95;;;4.82;;
20491;SDS011;10404;51.468;6.762;2023-07-02T11:46:39;9.95;;;6.15;;
20491;SDS011;10404;51.468;6.762;2023-07-02T11:49:04;8.05;;;5.60;;
20491;SDS011;10404;51.468;6.762;2023-07-02T11:51:30;7.40;;;5.90;;
20491;SDS011;10404;51.468;6.762;2023-07-02T11:53:56;8.27;;;4.90;;
20491;SDS011;10404;51.468;6.762;2023-07-02T11:56:23;9.00;;;5.35;;
20491;SDS011;10404;51.468;6.762;2023-07-02T11:58:48;8.80;;;5.10;;
20491;SDS011;10404;51.468;6.762;2023-07-02T12:01:14;7.93;;;5.53;;
20491;SDS011;10404;51.468;6.762;2023-07-02T12:03:40;8.73;;;5.57;;
20491;SDS011;10404;51.468;6.762;2023-07-02T12:06:05;7.82;;;5.95;;
20491;SDS011;10404;51.468;6.762;2023-07-02T12:08:31;8.45;;;6.30;;
20491;SDS011;10404;51.468;6.762;2023-07-02T12:10:56;6.90;;;4.82;;
20491;SDS011;10404;51.468;6.762;2023-07-02T12:13:22;8.27;;;5.78;;
20491;SDS011;10404;51.468;6.762;2023-07-02T12:15:47;8.73;;;5.20;;
20491;SDS011;10404;51.468;6.762;2023-07-02T12:18:14;7.88;;;5.28;;
20491;SDS011;10404;51.468;6.762;2023-07-02T12:20:40;7.78;;;5.50;;
20491;SDS011;10404;51.468;6.762;2023-07-02T12:23:06;7.88;;;5.28;;
20491;SDS011;10404;51.468;6.762;2023-07-02T12:25:31;8.10;;;5.88;;
20491;SDS011;10404;51.468;6.762;2023-07-02T12:27:57;7.60;;;5.65;;
20491;SDS011;10404;51.468;6.762;2023-07-02T12:30:22;7.72;;;5.22;;
20491;SDS011;10404;51.468;6.762;2023-07-02T12:32:48;7.90;;;5.28;;
20491;SDS011;10404;51.468;6.762;2023-07-02T12:35:14;7.68;;;4.97;;
20491;SDS011;10404;51.468;6.762;2023-07-02T12:37:43;7.00;;;5.53;;
20491;SDS011;10404;51.468;6.762;2023-07-02T12:40:10;9.05;;;5.45;;
20491;SDS011;10404;51.468;6.762;2023-07-02T12:42:35;8.95;;;6.00;;
20491;SDS011;10404;51.468;6.762;2023-07-02T12:45:01;8.93;;;5.40;;
20491;SDS011;10404;51.468;6.762;2023-07-02T12:47:27;8.90;;;5.60;;
20491;SDS011;10404;51.468;6.762;2023-07-02T12:49:52;8.60;;;5.93;;
20491;SDS011;10404;51.468;6.762;2023-07-02T12:52:18;7.82;;;5.50;;
20491;SDS011;10404;51.468;6.762;2023-07-02T12:54:43;9.13;;;5.50;;
20491;SDS011;10404;51.468;6.762;2023-07-02T12:57:09;9.82;;;6.57;;
20491;SDS011;10404;51.468;6.762;2023-07-02T12:59:35;9.02;;;6.53;;
20491;SDS011;10404;51.468;6.762;2023-07-02T13:02:00;9.27;;;5.57;;
20491;SDS011;10404;51.468;6.762;2023-07-02T13:04:26;8.80;;;6.47;;
20491;SDS011;10404;51.468;6.762;2023-07-02T13:06:51;8.75;;;6.35;;
20491;SDS011;10404;51.468;6.762;2023-07-02T13:09:17;8.93;;;5.65;;
20491;SDS011;10404;51.468;6.762;2023-07-02T13:11:42;7.68;;;5.82;;
20491;SDS011;10404;51.468;6.762;2023-07-02T13:14:08;8.00;;;5.97;;
20491;SDS011;10404;51.468;6.762;2023-07-02T13:16:33;8.65;;;6.13;;
20491;SDS011;10404;51.468;6.762;2023-07-02T13:18:59;8.20;;;6.25;;
20491;SDS011;10404;51.468;6.762;2023-07-02T13:21:27;8.27;;;6.60;;
20491;SDS011;10404;51.468;6.762;2023-07-02T13:23:53;8.35;;;6.13;;
20491;SDS011;10404;51.468;6.762;2023-07-02T13:26:18;10.65;;;6.65;;
20491;SDS011;10404;51.468;6.762;2023-07-02T13:28:45;10.75;;;6.72;;
20491;SDS011;10404;51.468;6.762;2023-07-02T13:31:12;8.85;;;5.78;;
20491;SDS011;10404;51.468;6.762;2023-07-02T13:33:38;10.02;;;7.05;;
20491;SDS011;10404;51.468;6.762;2023-07-02T13:36:04;9.02;;;6.75;;
20491;SDS011;10404;51.468;6.762;2023-07-02T13:38:30;10.32;;;7.72;;
20491;SDS011;10404;51.468;6.762;2023-07-02T13:40:56;8.20;;;6.93;;
20491;SDS011;10404;51.468;6.762;2023-07-02T13:43:22;8.93;;;7.28;;
20491;SDS011;10404;51.468;6.762;2023-07-02T13:45:48;11.02;;;7.35;;
20491;SDS011;10404;51.468;6.762;2023-07-02T13:48:14;9.10;;;6.43;;
20491;SDS011;10404;51.468;6.762;2023-07-02T13:50:39;9.18;;;6.82;;
20491;SDS011;10404;51.468;6.762;2023-07-02T13:53:05;10.57;;;7.60;;
20491;SDS011;10404;51.468;6.762;2023-07-02T13:55:31;8.73;;;6.90;;
20491;SDS011;10404;51.468;6.762;2023-07-02T13:57:56;9.13;;;6.88;;
20491;SDS011;10404;51.468;6.762;2023-07-02T14:00:23;11.15;;;7.57;;
20491;SDS011;10404;51.468;6.762;2023-07-02T14:02:49;8.65;;;6.22;;
20491;SDS011;10404;51.468;6.762;2023-07-02T14:05:14;9.90;;;6.53;;
20491;SDS011;10404;51.468;6.762;2023-07-02T14:07:40;9.48;;;7.38;;
20491;SDS011;10404;51.468;6.762;2023-07-02T14:10:05;10.48;;;6.93;;
20491;SDS011;10404;51.468;6.762;2023-07-02T14:12:31;10.95;;;7.13;;
20491;SDS011;10404;51.468;6.762;2023-07-02T14:14:57;7.30;;;6.60;;
20491;SDS011;10404;51.468;6.762;2023-07-02T14:17:23;10.90;;;8.15;;
20491;SDS011;10404;51.468;6.762;2023-07-02T14:19:48;9.48;;;6.70;;
20491;SDS011;10404;51.468;6.762;2023-07-02T14:22:14;10.32;;;6.85;;
20491;SDS011;10404;51.468;6.762;2023-07-02T14:24:40;10.25;;;7.40;;
20491;SDS011;10404;51.468;6.762;2023-07-02T14:27:05;10.63;;;7.30;;
20491;SDS011;10404;51.468;6.762;2023-07-02T14:29:31;10.38;;;8.00;;
20491;SDS011;10404;51.468;6.762;2023-07-02T14:31:57;11.45;;;7.30;;
20491;SDS011;10404;51.468;6.762;2023-07-02T14:34:22;11.63;;;8.02;;
20491;SDS011;10404;51.468;6.762;2023-07-02T14:36:48;10.32;;;7.13;;